sensor_id;sensor_type;location;lat;lon;timestamp;temperature;humidity
65235;DHT22;51820;48.374;10.930;2023-03-23T00:00:10;13.50;47.20
65235;DHT22;51820;48.374;10.930;2023-03-23T00:05:08;13.40;47.30
65235;DHT22;51820;48.374;10.930;2023-03-23T00:10:03;13.50;47.40
65235;DHT22;51820;48.374;10.930;2023-03-23T00:12:32;13.50;47.50
65235;DHT22;51820;48.374;10.930;2023-03-23T00:17:28;13.50;47.40
65235;DHT22;51820;48.374;10.930;2023-03-23T00:24:51;13.40;47.60
65235;DHT22;51820;48.374;10.930;2023-03-23T00:29:49;13.40;48.00
65235;DHT22;51820;48.374;10.930;2023-03-23T00:32:19;13.30;48.10
65235;DHT22;51820;48.374;10.930;2023-03-23T00:42:13;13.30;48.60
65235;DHT22;51820;48.374;10.930;2023-03-23T00:47:14;13.20;48.60
65235;DHT22;51820;48.374;10.930;2023-03-23T00:49:46;13.20;48.70
65235;DHT22;51820;48.374;10.930;2023-03-23T00:57:12;13.10;49.20
65235;DHT22;51820;48.374;10.930;2023-03-23T01:02:13;13.10;49.40
65235;DHT22;51820;48.374;10.930;2023-03-23T01:12:12;13.10;49.60
65235;DHT22;51820;48.374;10.930;2023-03-23T01:19:43;18.20;69.90
65235;DHT22;51820;48.374;10.930;2023-03-23T01:22:13;13.10;49.60
65235;DHT22;51820;48.374;10.930;2023-03-23T01:24:55;13.00;49.80
65235;DHT22;51820;48.374;10.930;2023-03-23T01:34:48;13.00;50.40
65235;DHT22;51820;48.374;10.930;2023-03-23T01:37:19;9.70;75.60
65235;DHT22;51820;48.374;10.930;2023-03-23T01:40:26;12.90;50.50
65235;DHT22;51820;48.374;10.930;2023-03-23T01:45:32;12.80;50.90
65235;DHT22;51820;48.374;10.930;2023-03-23T01:48:10;12.80;51.00
65235;DHT22;51820;48.374;10.930;2023-03-23T01:50:48;12.80;51.00
65235;DHT22;51820;48.374;10.930;2023-03-23T01:53:16;17.50;79.50
65235;DHT22;51820;48.374;10.930;2023-03-23T01:55:44;12.70;51.20
65235;DHT22;51820;48.374;10.930;2023-03-23T01:58:15;12.80;51.40
65235;DHT22;51820;48.374;10.930;2023-03-23T02:00:43;12.70;51.50
65235;DHT22;51820;48.374;10.930;2023-03-23T02:03:12;12.70;51.50
65235;DHT22;51820;48.374;10.930;2023-03-23T02:05:43;13.50;52.00
65235;DHT22;51820;48.374;10.930;2023-03-23T02:15:50;12.70;52.10
65235;DHT22;51820;48.374;10.930;2023-03-23T02:18:44;12.70;52.30
65235;DHT22;51820;48.374;10.930;2023-03-23T02:21:36;12.70;52.40
65235;DHT22;51820;48.374;10.930;2023-03-23T02:27:07;12.70;52.40
65235;DHT22;51820;48.374;10.930;2023-03-23T02:30:07;12.50;52.50
65235;DHT22;51820;48.374;10.930;2023-03-23T02:33:16;9.50;70.50
65235;DHT22;51820;48.374;10.930;2023-03-23T02:35:51;12.60;53.00
65235;DHT22;51820;48.374;10.930;2023-03-23T02:38:22;12.40;53.00
65235;DHT22;51820;48.374;10.930;2023-03-23T02:40:51;12.60;53.10
65235;DHT22;51820;48.374;10.930;2023-03-23T02:43:22;12.50;53.20
65235;DHT22;51820;48.374;10.930;2023-03-23T02:45:52;12.50;53.30
65235;DHT22;51820;48.374;10.930;2023-03-23T02:48:23;12.50;53.40
65235;DHT22;51820;48.374;10.930;2023-03-23T02:50:51;12.50;53.50
65235;DHT22;51820;48.374;10.930;2023-03-23T02:53:21;12.50;53.70
65235;DHT22;51820;48.374;10.930;2023-03-23T02:55:53;12.40;53.80
65235;DHT22;51820;48.374;10.930;2023-03-23T02:58:24;12.40;54.00
65235;DHT22;51820;48.374;10.930;2023-03-23T03:03:24;12.40;54.10
65235;DHT22;51820;48.374;10.930;2023-03-23T03:05:58;12.40;54.30
65235;DHT22;51820;48.374;10.930;2023-03-23T03:08:33;12.40;54.30
65235;DHT22;51820;48.374;10.930;2023-03-23T03:11:08;12.30;54.50
65235;DHT22;51820;48.374;10.930;2023-03-23T03:13:45;12.40;54.60
65235;DHT22;51820;48.374;10.930;2023-03-23T03:16:23;12.40;54.60
65235;DHT22;51820;48.374;10.930;2023-03-23T03:18:56;12.40;54.80
65235;DHT22;51820;48.374;10.930;2023-03-23T03:21:28;12.40;54.80
65235;DHT22;51820;48.374;10.930;2023-03-23T03:24:00;12.40;54.80
65235;DHT22;51820;48.374;10.930;2023-03-23T03:26:29;12.30;54.80
65235;DHT22;51820;48.374;10.930;2023-03-23T03:31:42;12.40;54.90
65235;DHT22;51820;48.374;10.930;2023-03-23T03:34:14;12.40;54.90
65235;DHT22;51820;48.374;10.930;2023-03-23T03:36:48;12.40;54.90
65235;DHT22;51820;48.374;10.930;2023-03-23T03:49:11;12.40;54.90
65235;DHT22;51820;48.374;10.930;2023-03-23T03:51:44;12.50;55.10
65235;DHT22;51820;48.374;10.930;2023-03-23T04:07:33;12.50;55.50
65235;DHT22;51820;48.374;10.930;2023-03-23T04:22:50;12.60;56.40
65235;DHT22;51820;48.374;10.930;2023-03-23T04:25:19;12.50;56.70
65235;DHT22;51820;48.374;10.930;2023-03-23T04:27:50;12.60;56.60
65235;DHT22;51820;48.374;10.930;2023-03-23T04:30:24;12.60;56.70
65235;DHT22;51820;48.374;10.930;2023-03-23T04:35:43;12.60;57.10
65235;DHT22;51820;48.374;10.930;2023-03-23T04:38:18;12.60;57.10
65235;DHT22;51820;48.374;10.930;2023-03-23T04:54:21;12.60;57.60
65235;DHT22;51820;48.374;10.930;2023-03-23T05:09:49;12.50;57.70
65235;DHT22;51820;48.374;10.930;2023-03-23T05:19:56;12.30;58.00
65235;DHT22;51820;48.374;10.930;2023-03-23T05:25:06;13.50;58.50
65235;DHT22;51820;48.374;10.930;2023-03-23T05:30:20;12.30;57.40
65235;DHT22;51820;48.374;10.930;2023-03-23T05:32:48;10.00;81.80
65235;DHT22;51820;48.374;10.930;2023-03-23T05:40:30;12.30;57.50
65235;DHT22;51820;48.374;10.930;2023-03-23T05:55:36;12.40;57.00
65235;DHT22;51820;48.374;10.930;2023-03-23T06:11:06;12.50;55.80
65235;DHT22;51820;48.374;10.930;2023-03-23T06:21:31;14.90;81.10
65235;DHT22;51820;48.374;10.930;2023-03-23T06:26:39;12.90;54.40
65235;DHT22;51820;48.374;10.930;2023-03-23T06:31:50;13.00;53.80
65235;DHT22;51820;48.374;10.930;2023-03-23T06:42:39;13.20;52.80
65235;DHT22;51820;48.374;10.930;2023-03-23T06:55:43;13.40;52.30
65235;DHT22;51820;48.374;10.930;2023-03-23T06:58:13;13.40;52.40
65235;DHT22;51820;48.374;10.930;2023-03-23T07:00:40;13.30;53.00
65235;DHT22;51820;48.374;10.930;2023-03-23T07:13:13;13.50;52.70
65235;DHT22;51820;48.374;10.930;2023-03-23T07:28:40;13.50;52.50
65235;DHT22;51820;48.374;10.930;2023-03-23T07:36:20;13.50;52.40
65235;DHT22;51820;48.374;10.930;2023-03-23T07:43:45;13.60;52.70
65235;DHT22;51820;48.374;10.930;2023-03-23T07:59:27;13.80;52.40
65235;DHT22;51820;48.374;10.930;2023-03-23T08:10:09;13.90;52.60
65235;DHT22;51820;48.374;10.930;2023-03-23T08:12:42;13.90;51.80
65235;DHT22;51820;48.374;10.930;2023-03-23T08:15:39;14.00;51.70
65235;DHT22;51820;48.374;10.930;2023-03-23T08:21:05;14.20;52.00
65235;DHT22;51820;48.374;10.930;2023-03-23T08:29:09;11.90;73.00
65235;DHT22;51820;48.374;10.930;2023-03-23T08:31:57;14.40;50.60
65235;DHT22;51820;48.374;10.930;2023-03-23T08:40:07;14.70;50.20
65235;DHT22;51820;48.374;10.930;2023-03-23T08:42:55;14.70;49.80
65235;DHT22;51820;48.374;10.930;2023-03-23T08:48:31;14.90;49.10
65235;DHT22;51820;48.374;10.930;2023-03-23T09:05:24;15.50;45.50
65235;DHT22;51820;48.374;10.930;2023-03-23T09:20:25;16.00;43.30
65235;DHT22;51820;48.374;10.930;2023-03-23T09:22:55;16.00;43.10
65235;DHT22;51820;48.374;10.930;2023-03-23T09:25:25;16.00;43.20
65235;DHT22;51820;48.374;10.930;2023-03-23T09:27:58;16.10;43.10
65235;DHT22;51820;48.374;10.930;2023-03-23T09:30:29;16.20;43.10
65235;DHT22;51820;48.374;10.930;2023-03-23T09:33:00;16.20;43.20
65235;DHT22;51820;48.374;10.930;2023-03-23T09:35:34;16.20;42.40
65235;DHT22;51820;48.374;10.930;2023-03-23T09:40:41;18.30;43.60
65235;DHT22;51820;48.374;10.930;2023-03-23T09:43:24;16.40;42.80
65235;DHT22;51820;48.374;10.930;2023-03-23T09:46:07;16.30;42.50
65235;DHT22;51820;48.374;10.930;2023-03-23T09:48:51;16.40;43.40
65235;DHT22;51820;48.374;10.930;2023-03-23T09:51:40;16.40;42.00
65235;DHT22;51820;48.374;10.930;2023-03-23T09:54:13;16.40;42.10
65235;DHT22;51820;48.374;10.930;2023-03-23T09:59:15;16.50;42.30
65235;DHT22;51820;48.374;10.930;2023-03-23T10:01:45;16.50;42.40
65235;DHT22;51820;48.374;10.930;2023-03-23T10:04:24;16.50;42.40
65235;DHT22;51820;48.374;10.930;2023-03-23T10:06:58;16.50;42.30
65235;DHT22;51820;48.374;10.930;2023-03-23T10:09:26;16.50;43.80
65235;DHT22;51820;48.374;10.930;2023-03-23T10:12:02;16.50;42.20
65235;DHT22;51820;48.374;10.930;2023-03-23T10:14:47;16.10;42.20
65235;DHT22;51820;48.374;10.930;2023-03-23T10:17:21;16.50;42.50
65235;DHT22;51820;48.374;10.930;2023-03-23T10:19:53;16.60;42.60
65235;DHT22;51820;48.374;10.930;2023-03-23T10:22:28;16.60;42.60
65235;DHT22;51820;48.374;10.930;2023-03-23T10:25:02;16.60;42.80
65235;DHT22;51820;48.374;10.930;2023-03-23T10:27:33;16.60;42.60
65235;DHT22;51820;48.374;10.930;2023-03-23T10:30:13;16.60;42.80
65235;DHT22;51820;48.374;10.930;2023-03-23T10:33:03;16.60;42.90
65235;DHT22;51820;48.374;10.930;2023-03-23T10:35:36;16.60;43.00
65235;DHT22;51820;48.374;10.930;2023-03-23T10:38:10;16.60;43.00
65235;DHT22;51820;48.374;10.930;2023-03-23T10:40:49;16.60;43.80
65235;DHT22;51820;48.374;10.930;2023-03-23T10:43:17;16.70;43.10
65235;DHT22;51820;48.374;10.930;2023-03-23T10:45:50;16.70;44.40
65235;DHT22;51820;48.374;10.930;2023-03-23T10:48:24;16.80;42.90
65235;DHT22;51820;48.374;10.930;2023-03-23T10:50:55;16.80;43.00
65235;DHT22;51820;48.374;10.930;2023-03-23T10:53:29;16.80;42.80
65235;DHT22;51820;48.374;10.930;2023-03-23T10:58:34;16.90;43.00
65235;DHT22;51820;48.374;10.930;2023-03-23T11:01:04;17.00;43.30
65235;DHT22;51820;48.374;10.930;2023-03-23T11:03:41;17.10;43.30
65235;DHT22;51820;48.374;10.930;2023-03-23T11:06:19;17.20;43.00
65235;DHT22;51820;48.374;10.930;2023-03-23T11:08:52;17.30;42.80
65235;DHT22;51820;48.374;10.930;2023-03-23T11:11:27;17.30;42.80
65235;DHT22;51820;48.374;10.930;2023-03-23T11:13:59;17.40;42.80
65235;DHT22;51820;48.374;10.930;2023-03-23T11:16:29;17.40;42.30
65235;DHT22;51820;48.374;10.930;2023-03-23T11:18:58;17.50;41.90
65235;DHT22;51820;48.374;10.930;2023-03-23T11:21:27;17.50;42.00
65235;DHT22;51820;48.374;10.930;2023-03-23T11:23:58;17.50;41.70
65235;DHT22;51820;48.374;10.930;2023-03-23T11:26:27;14.40;40.00
65235;DHT22;51820;48.374;10.930;2023-03-23T11:28:57;17.50;41.60
65235;DHT22;51820;48.374;10.930;2023-03-23T11:31:29;17.40;41.70
65235;DHT22;51820;48.374;10.930;2023-03-23T11:33:59;17.40;41.50
65235;DHT22;51820;48.374;10.930;2023-03-23T11:36:35;17.40;41.60
65235;DHT22;51820;48.374;10.930;2023-03-23T11:39:20;16.70;42.00
65235;DHT22;51820;48.374;10.930;2023-03-23T11:46:58;17.50;42.30
65235;DHT22;51820;48.374;10.930;2023-03-23T11:49:35;17.60;42.70
65235;DHT22;51820;48.374;10.930;2023-03-23T11:52:10;17.80;42.90
65235;DHT22;51820;48.374;10.930;2023-03-23T11:54:43;17.80;42.60
65235;DHT22;51820;48.374;10.930;2023-03-23T12:02:34;16.40;63.90
65235;DHT22;51820;48.374;10.930;2023-03-23T12:08:26;17.90;41.10
65235;DHT22;51820;48.374;10.930;2023-03-23T12:11:01;17.80;41.00
65235;DHT22;51820;48.374;10.930;2023-03-23T12:14:01;17.70;41.30
65235;DHT22;51820;48.374;10.930;2023-03-23T12:16:44;17.70;41.60
65235;DHT22;51820;48.374;10.930;2023-03-23T12:19:21;17.70;41.70
65235;DHT22;51820;48.374;10.930;2023-03-23T12:21:55;17.70;41.60
65235;DHT22;51820;48.374;10.930;2023-03-23T12:24:41;17.70;41.50
65235;DHT22;51820;48.374;10.930;2023-03-23T12:27:19;17.70;41.90
65235;DHT22;51820;48.374;10.930;2023-03-23T12:30:05;17.70;41.50
65235;DHT22;51820;48.374;10.930;2023-03-23T12:32:50;17.70;41.50
65235;DHT22;51820;48.374;10.930;2023-03-23T12:35:30;17.70;41.70
65235;DHT22;51820;48.374;10.930;2023-03-23T12:38:11;17.70;41.80
65235;DHT22;51820;48.374;10.930;2023-03-23T12:40:49;22.30;56.30
65235;DHT22;51820;48.374;10.930;2023-03-23T12:43:24;17.70;41.80
65235;DHT22;51820;48.374;10.930;2023-03-23T12:46:05;17.70;41.60
65235;DHT22;51820;48.374;10.930;2023-03-23T12:48:41;17.70;41.90
65235;DHT22;51820;48.374;10.930;2023-03-23T12:51:16;17.70;41.90
65235;DHT22;51820;48.374;10.930;2023-03-23T12:53:50;17.70;42.30
65235;DHT22;51820;48.374;10.930;2023-03-23T12:56:23;17.70;42.20
65235;DHT22;51820;48.374;10.930;2023-03-23T12:58:59;17.70;41.90
65235;DHT22;51820;48.374;10.930;2023-03-23T13:01:30;17.70;41.90
65235;DHT22;51820;48.374;10.930;2023-03-23T13:04:03;17.70;41.90
65235;DHT22;51820;48.374;10.930;2023-03-23T13:06:34;17.70;41.90
65235;DHT22;51820;48.374;10.930;2023-03-23T13:09:05;17.70;41.90
65235;DHT22;51820;48.374;10.930;2023-03-23T13:11:36;17.70;42.00
65235;DHT22;51820;48.374;10.930;2023-03-23T13:14:15;17.70;42.00
65235;DHT22;51820;48.374;10.930;2023-03-23T13:16:49;17.70;41.90
65235;DHT22;51820;48.374;10.930;2023-03-23T13:19:23;17.70;41.80
65235;DHT22;51820;48.374;10.930;2023-03-23T13:21:57;17.70;41.90
65235;DHT22;51820;48.374;10.930;2023-03-23T13:24:30;17.70;41.80
65235;DHT22;51820;48.374;10.930;2023-03-23T13:26:59;17.70;42.20
65235;DHT22;51820;48.374;10.930;2023-03-23T13:29:28;17.70;42.00
65235;DHT22;51820;48.374;10.930;2023-03-23T13:32:11;17.70;42.30
65235;DHT22;51820;48.374;10.930;2023-03-23T13:34:39;17.70;42.70
65235;DHT22;51820;48.374;10.930;2023-03-23T13:37:11;17.70;42.80
65235;DHT22;51820;48.374;10.930;2023-03-23T13:39:50;17.70;42.80
65235;DHT22;51820;48.374;10.930;2023-03-23T13:42:22;17.80;42.40
65235;DHT22;51820;48.374;10.930;2023-03-23T13:45:15;17.80;42.50
65235;DHT22;51820;48.374;10.930;2023-03-23T13:50:25;17.80;42.60
65235;DHT22;51820;48.374;10.930;2023-03-23T13:52:58;17.80;42.60
65235;DHT22;51820;48.374;10.930;2023-03-23T13:55:38;17.80;42.10
65235;DHT22;51820;48.374;10.930;2023-03-23T13:58:20;17.90;42.20
65235;DHT22;51820;48.374;10.930;2023-03-23T14:01:03;17.90;41.90
65235;DHT22;51820;48.374;10.930;2023-03-23T14:03:39;17.90;41.60
65235;DHT22;51820;48.374;10.930;2023-03-23T14:06:12;17.90;41.40
65235;DHT22;51820;48.374;10.930;2023-03-23T14:09:05;17.90;41.40
65235;DHT22;51820;48.374;10.930;2023-03-23T14:14:14;17.90;41.50
65235;DHT22;51820;48.374;10.930;2023-03-23T14:16:44;17.90;41.60
65235;DHT22;51820;48.374;10.930;2023-03-23T14:19:18;16.80;44.70
65235;DHT22;51820;48.374;10.930;2023-03-23T14:21:52;14.80;65.30
65235;DHT22;51820;48.374;10.930;2023-03-23T14:24:23;17.80;42.20
65235;DHT22;51820;48.374;10.930;2023-03-23T14:26:52;17.80;42.40
65235;DHT22;51820;48.374;10.930;2023-03-23T14:29:21;17.80;41.70
65235;DHT22;51820;48.374;10.930;2023-03-23T14:31:56;17.80;42.00
65235;DHT22;51820;48.374;10.930;2023-03-23T14:34:25;17.70;41.90
65235;DHT22;51820;48.374;10.930;2023-03-23T14:39:24;17.70;42.20
65235;DHT22;51820;48.374;10.930;2023-03-23T14:41:54;17.70;42.00
65235;DHT22;51820;48.374;10.930;2023-03-23T14:44:25;17.70;42.10
65235;DHT22;51820;48.374;10.930;2023-03-23T14:46:56;17.70;42.00
65235;DHT22;51820;48.374;10.930;2023-03-23T14:49:30;17.70;42.00
65235;DHT22;51820;48.374;10.930;2023-03-23T14:52:03;17.60;42.00
65235;DHT22;51820;48.374;10.930;2023-03-23T14:54:31;17.60;41.90
65235;DHT22;51820;48.374;10.930;2023-03-23T14:57:03;17.60;42.10
65235;DHT22;51820;48.374;10.930;2023-03-23T15:02:04;17.50;41.80
65235;DHT22;51820;48.374;10.930;2023-03-23T15:07:01;17.50;42.10
65235;DHT22;51820;48.374;10.930;2023-03-23T15:09:30;17.50;42.20
65235;DHT22;51820;48.374;10.930;2023-03-23T15:11:59;17.50;42.40
65235;DHT22;51820;48.374;10.930;2023-03-23T15:14:29;17.50;42.70
65235;DHT22;51820;48.374;10.930;2023-03-23T15:16:59;17.40;43.00
65235;DHT22;51820;48.374;10.930;2023-03-23T15:19:32;17.50;43.20
65235;DHT22;51820;48.374;10.930;2023-03-23T15:22:05;17.40;43.30
65235;DHT22;51820;48.374;10.930;2023-03-23T15:24:34;17.40;43.80
65235;DHT22;51820;48.374;10.930;2023-03-23T15:27:12;16.20;68.40
65235;DHT22;51820;48.374;10.930;2023-03-23T15:29:49;17.40;43.90
65235;DHT22;51820;48.374;10.930;2023-03-23T15:32:24;15.80;60.70
65235;DHT22;51820;48.374;10.930;2023-03-23T15:34:54;17.30;44.10
65235;DHT22;51820;48.374;10.930;2023-03-23T15:37:27;17.30;44.00
65235;DHT22;51820;48.374;10.930;2023-03-23T15:39:55;17.20;44.10
65235;DHT22;51820;48.374;10.930;2023-03-23T15:42:26;17.20;44.50
65235;DHT22;51820;48.374;10.930;2023-03-23T15:45:21;17.20;44.40
65235;DHT22;51820;48.374;10.930;2023-03-23T15:50:32;17.10;44.40
65235;DHT22;51820;48.374;10.930;2023-03-23T16:00:50;17.10;45.00
65235;DHT22;51820;48.374;10.930;2023-03-23T16:03:22;17.00;45.20
65235;DHT22;51820;48.374;10.930;2023-03-23T16:05:55;20.00;46.90
65235;DHT22;51820;48.374;10.930;2023-03-23T16:18:21;17.00;45.90
65235;DHT22;51820;48.374;10.930;2023-03-23T16:23:19;16.90;46.00
65235;DHT22;51820;48.374;10.930;2023-03-23T16:25:51;16.90;46.10
65235;DHT22;51820;48.374;10.930;2023-03-23T16:38:15;16.90;46.40
65235;DHT22;51820;48.374;10.930;2023-03-23T16:40:45;16.90;46.40
65235;DHT22;51820;48.374;10.930;2023-03-23T16:45:44;16.90;46.30
65235;DHT22;51820;48.374;10.930;2023-03-23T16:48:15;16.90;46.40
65235;DHT22;51820;48.374;10.930;2023-03-23T16:55:45;16.80;46.40
65235;DHT22;51820;48.374;10.930;2023-03-23T16:58:15;16.80;46.40
65235;DHT22;51820;48.374;10.930;2023-03-23T17:05:12;13.90;70.00
65235;DHT22;51820;48.374;10.930;2023-03-23T17:11:42;16.70;47.50
65235;DHT22;51820;48.374;10.930;2023-03-23T17:15:11;16.70;46.20
65235;DHT22;51820;48.374;10.930;2023-03-23T17:29:19;16.70;46.70
65235;DHT22;51820;48.374;10.930;2023-03-23T17:33:10;16.70;46.80
65235;DHT22;51820;48.374;10.930;2023-03-23T17:36:34;16.70;46.90
65235;DHT22;51820;48.374;10.930;2023-03-23T17:43:00;16.70;47.10
65235;DHT22;51820;48.374;10.930;2023-03-23T17:50:02;16.60;47.10
65235;DHT22;51820;48.374;10.930;2023-03-23T17:53:33;16.60;48.80
65235;DHT22;51820;48.374;10.930;2023-03-23T17:56:58;16.60;48.50
65235;DHT22;51820;48.374;10.930;2023-03-23T18:00:23;16.60;47.40
65235;DHT22;51820;48.374;10.930;2023-03-23T18:03:40;16.60;47.40
65235;DHT22;51820;48.374;10.930;2023-03-23T18:07:29;16.60;47.50
65235;DHT22;51820;48.374;10.930;2023-03-23T18:15:07;16.60;47.50
65235;DHT22;51820;48.374;10.930;2023-03-23T18:18:10;16.60;48.50
65235;DHT22;51820;48.374;10.930;2023-03-23T18:21:09;16.50;49.60
65235;DHT22;51820;48.374;10.930;2023-03-23T18:23:44;16.50;47.50
65235;DHT22;51820;48.374;10.930;2023-03-23T18:29:16;16.50;48.30
65235;DHT22;51820;48.374;10.930;2023-03-23T18:32:33;16.50;47.60
65235;DHT22;51820;48.374;10.930;2023-03-23T18:38:46;16.50;47.60
65235;DHT22;51820;48.374;10.930;2023-03-23T18:44:25;16.50;47.80
65235;DHT22;51820;48.374;10.930;2023-03-23T18:47:12;16.40;50.00
65235;DHT22;51820;48.374;10.930;2023-03-23T18:49:50;16.40;49.70
65235;DHT22;51820;48.374;10.930;2023-03-23T18:53:07;16.30;48.10
65235;DHT22;51820;48.374;10.930;2023-03-23T18:56:06;18.50;49.80
65235;DHT22;51820;48.374;10.930;2023-03-23T18:58:57;16.30;48.60
65235;DHT22;51820;48.374;10.930;2023-03-23T19:05:20;16.30;48.60
65235;DHT22;51820;48.374;10.930;2023-03-23T19:10:38;16.20;51.10
65235;DHT22;51820;48.374;10.930;2023-03-23T19:13:20;16.20;48.80
65235;DHT22;51820;48.374;10.930;2023-03-23T19:18:33;16.10;49.00
65235;DHT22;51820;48.374;10.930;2023-03-23T19:21:19;16.10;54.80
65235;DHT22;51820;48.374;10.930;2023-03-23T19:24:16;16.10;49.60
65235;DHT22;51820;48.374;10.930;2023-03-23T19:34:07;16.00;49.50
65235;DHT22;51820;48.374;10.930;2023-03-23T19:37:08;16.00;49.50
65235;DHT22;51820;48.374;10.930;2023-03-23T19:40:15;16.10;52.20
65235;DHT22;51820;48.374;10.930;2023-03-23T19:43:24;15.90;49.70
65235;DHT22;51820;48.374;10.930;2023-03-23T19:48:30;13.20;50.70
65235;DHT22;51820;48.374;10.930;2023-03-23T19:51:18;15.90;50.10
65235;DHT22;51820;48.374;10.930;2023-03-23T19:53:53;17.50;51.70
65235;DHT22;51820;48.374;10.930;2023-03-23T19:56:31;18.20;53.20
65235;DHT22;51820;48.374;10.930;2023-03-23T20:01:42;15.90;50.60
65235;DHT22;51820;48.374;10.930;2023-03-23T20:04:24;15.80;50.80
65235;DHT22;51820;48.374;10.930;2023-03-23T20:07:01;15.80;50.10
65235;DHT22;51820;48.374;10.930;2023-03-23T20:12:05;14.80;51.40
65235;DHT22;51820;48.374;10.930;2023-03-23T20:14:50;15.70;51.80
65235;DHT22;51820;48.374;10.930;2023-03-23T20:17:28;13.70;52.40
65235;DHT22;51820;48.374;10.930;2023-03-23T20:20:29;15.80;50.40
65235;DHT22;51820;48.374;10.930;2023-03-23T20:27:10;15.70;50.50
65235;DHT22;51820;48.374;10.930;2023-03-23T20:29:53;15.70;50.50
65235;DHT22;51820;48.374;10.930;2023-03-23T20:33:03;15.70;50.50
65235;DHT22;51820;48.374;10.930;2023-03-23T20:35:39;15.70;52.20
65235;DHT22;51820;48.374;10.930;2023-03-23T20:38:14;15.70;50.90
65235;DHT22;51820;48.374;10.930;2023-03-23T20:41:12;15.60;52.60
65235;DHT22;51820;48.374;10.930;2023-03-23T20:43:57;15.60;51.60
65235;DHT22;51820;48.374;10.930;2023-03-23T20:49:12;15.40;50.90
65235;DHT22;51820;48.374;10.930;2023-03-23T20:54:33;15.60;51.20
65235;DHT22;51820;48.374;10.930;2023-03-23T20:59:35;18.30;53.10
65235;DHT22;51820;48.374;10.930;2023-03-23T21:02:17;15.50;51.30
65235;DHT22;51820;48.374;10.930;2023-03-23T21:04:47;15.50;53.10
65235;DHT22;51820;48.374;10.930;2023-03-23T21:07:20;15.50;51.40
65235;DHT22;51820;48.374;10.930;2023-03-23T21:12:27;15.50;51.60
65235;DHT22;51820;48.374;10.930;2023-03-23T21:14:57;15.50;52.20
65235;DHT22;51820;48.374;10.930;2023-03-23T21:20:03;15.50;51.50
65235;DHT22;51820;48.374;10.930;2023-03-23T21:23:09;15.50;51.40
65235;DHT22;51820;48.374;10.930;2023-03-23T21:26:04;15.50;51.40
65235;DHT22;51820;48.374;10.930;2023-03-23T21:31:33;15.50;51.30
65235;DHT22;51820;48.374;10.930;2023-03-23T21:34:34;15.50;54.00
65235;DHT22;51820;48.374;10.930;2023-03-23T21:37:54;12.50;50.40
65235;DHT22;51820;48.374;10.930;2023-03-23T21:41:19;13.50;52.80
65235;DHT22;51820;48.374;10.930;2023-03-23T21:44:45;15.50;51.30
65235;DHT22;51820;48.374;10.930;2023-03-23T21:51:37;17.20;53.40
65235;DHT22;51820;48.374;10.930;2023-03-23T21:54:24;15.40;51.30
65235;DHT22;51820;48.374;10.930;2023-03-23T22:02:10;16.40;52.00
65235;DHT22;51820;48.374;10.930;2023-03-23T22:07:21;15.40;51.80
65235;DHT22;51820;48.374;10.930;2023-03-23T22:10:07;15.30;51.80
65235;DHT22;51820;48.374;10.930;2023-03-23T22:18:00;15.30;53.40
65235;DHT22;51820;48.374;10.930;2023-03-23T22:20:33;14.20;75.90
65235;DHT22;51820;48.374;10.930;2023-03-23T22:23:04;15.30;52.60
65235;DHT22;51820;48.374;10.930;2023-03-23T22:28:17;16.70;53.20
65235;DHT22;51820;48.374;10.930;2023-03-23T22:30:58;15.20;52.30
65235;DHT22;51820;48.374;10.930;2023-03-23T22:33:47;17.60;54.90
65235;DHT22;51820;48.374;10.930;2023-03-23T22:36:41;15.20;52.50
65235;DHT22;51820;48.374;10.930;2023-03-23T22:39:53;15.10;52.80
65235;DHT22;51820;48.374;10.930;2023-03-23T22:42:51;15.30;54.10
65235;DHT22;51820;48.374;10.930;2023-03-23T22:45:34;15.30;52.20
65235;DHT22;51820;48.374;10.930;2023-03-23T22:51:00;15.30;52.00
65235;DHT22;51820;48.374;10.930;2023-03-23T22:53:45;15.30;52.00
65235;DHT22;51820;48.374;10.930;2023-03-23T22:56:19;15.20;52.50
65235;DHT22;51820;48.374;10.930;2023-03-23T23:01:36;15.20;52.10
65235;DHT22;51820;48.374;10.930;2023-03-23T23:04:17;15.20;53.30
65235;DHT22;51820;48.374;10.930;2023-03-23T23:09:39;14.10;52.00
65235;DHT22;51820;48.374;10.930;2023-03-23T23:12:10;15.10;52.40
65235;DHT22;51820;48.374;10.930;2023-03-23T23:14:44;15.10;52.40
65235;DHT22;51820;48.374;10.930;2023-03-23T23:19:58;19.70;79.30
65235;DHT22;51820;48.374;10.930;2023-03-23T23:27:25;15.00;52.80
65235;DHT22;51820;48.374;10.930;2023-03-23T23:44:53;14.30;76.80
65235;DHT22;51820;48.374;10.930;2023-03-23T23:57:19;14.90;52.70
